Latest Weather Observations for Flinders Reef

IDQ60801

Issued at 10:05 pm EST Monday 24 November 2014 (issued every 30 minutes, with the page automatically refreshed every 10 minutes)

About weather observations | Map of weather stations | Latest weather observations for QLD | Other Formats
Station Details ID: 200783 Name: FLINDERS REEF Lat: -17.72 Lon: 148.45 Height: 2.6 m
Data from the previous 72 hours. | See also: Recent months at Flinders Reef
Date/Time
EST
Temp
°C
App
Temp
°C
Dew
Point
Rel
Hum
%
Delta-T
°C
Wind Press
QNH
hPa
Press
MSL
hPa
Rain
since 9 am
mm
Dir
 
Spd
km/h
Gust
km/h
Spd
kts
Gust
kts
24/10:00pm - - - - - E 26 32 14 17 1013.4 - -
24/09:30pm - - - - - E 30 33 16 18 1013.2 - -
24/09:24pm - - - - - E 30 - 16 - - 1013.0 -
24/09:00pm - - - - - E 26 32 14 17 1013.1 - -
24/08:30pm - - - - - E 28 30 15 16 1012.8 - -
24/08:24pm - - - - - E 28 - 15 - - 1012.6 -
24/08:00pm - - - - - E 26 32 14 17 1012.6 - -
24/07:30pm - - - - - E 26 32 14 17 1012.4 - -
24/07:24pm - - - - - E 28 - 15 - - 1012.2 -
24/07:00pm - - - - - E 28 33 15 18 1012.1 - -
24/06:30pm - - - - - E 26 30 14 16 1011.8 - -
24/06:24pm - - - - - E 26 - 14 - - 1011.7 -
24/06:00pm - - - - - E 26 32 14 17 1011.5 - -
24/05:30pm - - - - - E 26 30 14 16 1011.3 - -
24/05:24pm - - - - - E 26 - 14 - - 1011.1 -
24/05:00pm - - - - - E 26 30 14 16 1011.1 - -
24/04:30pm - - - - - E 26 30 14 16 1010.8 - -
24/04:24pm - - - - - E 26 - 14 - - 1010.6 -
24/04:00pm - - - - - E 30 32 16 17 1010.8 - -
24/03:30pm - - - - - E 28 33 15 18 1011.1 - -
24/03:24pm - - - - - E 30 - 16 - - 1011.0 -
24/03:00pm - - - - - E 30 35 16 19 1011.3 - -
24/02:30pm - - - - - E 30 33 16 18 1011.6 - -
24/02:24pm - - - - - E 30 - 16 - - 1011.6 -
24/02:00pm - - - - - E 28 32 15 17 1011.9 - -
24/01:30pm - - - - - E 28 32 15 17 1012.0 - -
24/01:24pm - - - - - E 28 - 15 - - 1012.0 -
24/01:00pm - - - - - E 28 33 15 18 1012.2 - -
24/12:30pm - - - - - E 28 32 15 17 1012.5 - -
24/12:24pm - - - - - E 28 - 15 - - 1012.6 -
24/12:00pm - - - - - E 30 33 16 18 1012.9 - -
24/11:30am - - - - - E 30 35 16 19 1013.2 - -
24/11:24am - - - - - E 30 - 16 - - 1013.2 -
24/11:00am - - - - - E 32 35 17 19 1013.5 - -
24/10:30am - - - - - E 32 35 17 19 1013.6 - -
24/10:24am - - - - - E 32 - 17 - - 1013.5 -
24/10:00am - - - - - E 33 35 18 19 1013.8 - -
24/09:30am - - - - - E 30 35 16 19 1013.9 - -
24/09:24am - - - - - E 30 - 16 - - 1013.8 -
24/09:00am - - - - - E 32 37 17 20 1013.9 - -
24/08:30am - - - - - E 28 33 15 18 1013.9 - -
24/08:24am - - - - - E 28 - 15 - - 1013.8 -
24/08:00am - - - - - E 28 32 15 17 1013.7 - -
24/07:30am - - - - - E 26 30 14 16 1013.6 - -
24/07:24am - - - - - E 26 - 14 - - 1013.4 -
24/07:00am - - - - - E 24 26 13 14 1013.3 - -
24/06:30am - - - - - E 22 28 12 15 1013.2 - -
24/06:24am - - - - - E 24 - 13 - - 1013.0 -
24/06:00am - - - - - E 26 30 14 16 1012.8 - -
24/05:30am - - - - - E 32 35 17 19 1012.6 - -
24/05:24am - - - - - E 32 - 17 - - 1012.5 -
24/05:00am - - - - - E 30 33 16 18 1012.5 - -
24/04:30am - - - - - NE 35 50 19 27 1012.8 - -
24/04:28am - - - - - ENE 32 50 17 27 1012.7 - -
24/04:24am - - - - - ENE 26 - 14 - - 1012.5 -
24/04:00am - - - - - ENE 22 28 12 15 1012.5 - -
24/03:30am - - - - - E 20 24 11 13 1012.3 - -
24/03:24am - - - - - ENE 22 - 12 - - 1012.2 -
24/03:00am - - - - - ENE 22 28 12 15 1012.2 - -
24/02:30am - - - - - ENE 26 30 14 16 1012.3 - -
24/02:24am - - - - - ENE 28 - 15 - - 1012.3 -
24/02:00am - - - - - ENE 28 32 15 17 1012.6 - -
24/01:30am - - - - - ENE 28 32 15 17 1013.0 - -
24/01:24am - - - - - ENE 28 - 15 - - 1012.9 -
24/01:00am - - - - - ENE 28 33 15 18 1013.2 - -
24/12:30am - - - - - ENE 28 32 15 17 1013.5 - -
24/12:24am - - - - - ENE 28 - 15 - - 1013.4 -
24/12:00am - - - - - ENE 30 33 16 18 1013.8 - -
 
Date/Time
EST
Temp
°C
App
Temp
°C
Dew
Point
Rel
Hum
%
Delta-T
°C
Wind Press
QNH
hPa
Press
MSL
hPa
Rain
since 9 am
mm
Dir
 
Spd
km/h
Gust
km/h
Spd
kts
Gust
kts
23/11:30pm - - - - - E 28 32 15 17 1014.1 - -
23/11:24pm - - - - - E 30 - 16 - - 1014.1 -
23/11:00pm - - - - - ENE 30 33 16 18 1014.3 - -
23/10:30pm - - - - - E 32 35 17 19 1014.4 - -
23/10:24pm - - - - - E 32 - 17 - - 1014.4 -
23/10:00pm - - - - - ENE 30 35 16 19 1014.5 - -
23/09:30pm - - - - - ENE 30 37 16 20 1014.1 - -
23/09:24pm - - - - - ENE 30 - 16 - - 1014.0 -
23/09:00pm - - - - - E 30 33 16 18 1013.8 - -
23/08:30pm - - - - - E 30 33 16 18 1013.6 - -
23/08:24pm - - - - - E 30 - 16 - - 1013.4 -
23/08:00pm - - - - - E 28 32 15 17 1013.2 - -
23/07:30pm - - - - - E 30 33 16 18 1012.9 - -
23/07:24pm - - - - - E 30 - 16 - - 1012.8 -
23/07:00pm - - - - - E 28 32 15 17 1012.7 - -
23/06:30pm - - - - - E 26 30 14 16 1012.6 - -
23/06:24pm - - - - - E 28 - 15 - - 1012.5 -
23/06:00pm - - - - - ESE 26 30 14 16 1012.6 - -
23/05:30pm - - - - - ESE 24 28 13 15 1012.7 - -
23/05:24pm - - - - - ESE 22 - 12 - - 1012.5 -
23/05:00pm - - - - - ESE 26 28 14 15 1012.4 - -
23/04:30pm - - - - - SE 26 30 14 16 1012.5 - -
23/04:24pm - - - - - SE 24 - 13 - - 1012.4 -
23/04:00pm - - - - - SE 26 35 14 19 1012.5 - -
23/03:30pm - - - - - SE 24 28 13 15 1012.6 - -
23/03:24pm - - - - - SE 22 - 12 - - 1012.4 -
23/03:00pm - - - - - SE 22 26 12 14 1012.8 - -
23/02:30pm - - - - - SE 22 26 12 14 1012.9 - -
23/02:24pm - - - - - SE 22 - 12 - - 1012.8 -
23/02:00pm - - - - - SE 22 26 12 14 1013.1 - -
23/01:30pm - - - - - ESE 24 26 13 14 1013.5 - -
23/01:24pm - - - - - ESE 24 - 13 - - 1013.5 -
23/01:00pm - - - - - ESE 22 26 12 14 1013.8 - -
23/12:30pm - - - - - ESE 22 26 12 14 1014.1 - -
23/12:24pm - - - - - ESE 22 - 12 - - 1014.1 -
23/12:00pm - - - - - ESE 22 26 12 14 1014.3 - -
23/11:30am - - - - - ESE 24 26 13 14 1014.5 - -
23/11:24am - - - - - ESE 22 - 12 - - 1014.5 -
23/11:00am - - - - - ESE 24 26 13 14 1014.8 - -
23/10:30am - - - - - E 24 26 13 14 1015.0 - -
23/10:24am - - - - - E 24 - 13 - - 1014.9 -
23/10:00am - - - - - ESE 22 26 12 14 1015.0 - -
23/09:30am - - - - - ESE 24 30 13 16 1015.1 - -
23/09:24am - - - - - E 26 - 14 - - 1015.1 -
23/09:00am - - - - - ESE 22 28 12 15 1015.0 - -
23/08:30am - - - - - ESE 19 26 10 14 1014.9 - -
23/08:24am - - - - - ESE 20 - 11 - - 1014.8 -
23/08:00am - - - - - ESE 22 26 12 14 1014.8 - -
23/07:30am - - - - - ESE 22 26 12 14 1014.4 - -
23/07:24am - - - - - ESE 19 - 10 - - 1014.3 -
23/07:00am - - - - - ESE 20 24 11 13 1014.2 - -
23/06:30am - - - - - ESE 22 24 12 13 1013.7 - -
23/06:24am - - - - - ESE 22 - 12 - - 1013.6 -
23/06:00am - - - - - ESE 24 28 13 15 1013.4 - -
23/05:30am - - - - - ESE 20 22 11 12 1013.2 - -
23/05:24am - - - - - ESE 20 - 11 - - 1013.0 -
23/05:00am - - - - - ESE 20 24 11 13 1013.0 - -
23/04:30am - - - - - E 20 24 11 13 1012.7 - -
23/04:24am - - - - - E 20 - 11 - - 1012.5 -
23/04:00am - - - - - E 20 24 11 13 1012.4 - -
23/03:30am - - - - - E 20 24 11 13 1012.3 - -
23/03:24am - - - - - E 22 - 12 - - 1012.1 -
23/03:00am - - - - - E 24 28 13 15 1012.4 - -
23/02:30am - - - - - ESE 22 26 12 14 1012.3 - -
23/02:24am - - - - - ESE 22 - 12 - - 1012.2 -
23/02:00am - - - - - E 22 26 12 14 1012.5 - -
23/01:30am - - - - - ESE 24 28 13 15 1012.7 - -
23/01:24am - - - - - E 24 - 13 - - 1012.7 -
23/01:00am - - - - - E 22 26 12 14 1013.1 - -
23/12:30am - - - - - E 22 28 12 15 1013.4 - -
23/12:24am - - - - - E 22 - 12 - - 1013.4 -
23/12:00am - - - - - E 24 28 13 15 1013.8 - -
 
Date/Time
EST
Temp
°C
App
Temp
°C
Dew
Point
Rel
Hum
%
Delta-T
°C
Wind Press
QNH
hPa
Press
MSL
hPa
Rain
since 9 am
mm
Dir
 
Spd
km/h
Gust
km/h
Spd
kts
Gust
kts
22/11:30pm - - - - - ENE 20 24 11 13 1014.1 - -
22/11:24pm - - - - - ENE 19 - 10 - - 1014.1 -
22/11:00pm - - - - - ENE 17 19 9 10 1014.3 - -
22/10:30pm - - - - - ENE 19 20 10 11 1014.5 - -
22/10:24pm - - - - - ENE 19 - 10 - - 1014.4 -
22/10:00pm - - - - - E 19 20 10 11 1014.2 - -
22/09:30pm - - - - - E 20 24 11 13 1013.9 - -
22/09:24pm - - - - - E 20 - 11 - - 1013.8 -
22/09:00pm - - - - - E 19 22 10 12 1013.7 - -
22/08:30pm - - - - - E 20 22 11 12 1013.4 - -
22/08:24pm - - - - - E 19 - 10 - - 1013.2 -
22/08:00pm - - - - - E 20 22 11 12 1013.1 - -
22/07:30pm - - - - - E 19 22 10 12 1013.0 - -
22/07:24pm - - - - - E 20 - 11 - - 1012.9 -
22/07:00pm - - - - - E 19 20 10 11 1012.9 - -
22/06:30pm - - - - - E 20 22 11 12 1012.8 - -
22/06:24pm - - - - - E 19 - 10 - - 1012.7 -
22/06:00pm - - - - - E 20 24 11 13 1012.6 - -
22/05:30pm - - - - - E 19 20 10 11 1012.6 - -
22/05:24pm - - - - - E 19 - 10 - - 1012.5 -
22/05:00pm - - - - - ESE 17 20 9 11 1012.5 - -
22/04:30pm - - - - - ESE 19 20 10 11 1012.2 - -
22/04:24pm - - - - - ESE 17 - 9 - - 1012.1 -
22/04:00pm - - - - - E 17 19 9 10 1012.1 - -
22/03:30pm - - - - - E 17 20 9 11 1012.2 - -
22/03:24pm - - - - - E 19 - 10 - - 1012.2 -
22/03:00pm - - - - - E 19 20 10 11 1012.4 - -
22/02:30pm - - - - - E 20 22 11 12 1012.5 - -
22/02:24pm - - - - - E 20 - 11 - - 1012.5 -
22/02:00pm - - - - - E 19 22 10 12 1012.8 - -
22/01:30pm - - - - - ESE 17 20 9 11 1012.8 - -
22/01:24pm - - - - - ESE 17 - 9 - - 1012.7 -
22/01:00pm - - - - - E 19 20 10 11 1013.0 - -
22/12:30pm - - - - - E 19 20 10 11 1013.4 - -
22/12:24pm - - - - - E 17 - 9 - - 1013.4 -
22/12:00pm - - - - - ENE 19 20 10 11 1013.7 - -
22/11:30am - - - - - ENE 19 22 10 12 1014.1 - -
22/11:24am - - - - - ENE 19 - 10 - - 1014.0 -
22/11:00am - - - - - ENE 19 20 10 11 1014.3 - -
22/10:30am - - - - - E 19 24 10 13 1014.4 - -
22/10:24am - - - - - E 17 - 9 - - 1014.3 -
22/10:00am - - - - - E 17 20 9 11 1014.5 - -
22/09:30am - - - - - E 17 20 9 11 1014.7 - -
22/09:24am - - - - - E 19 - 10 - - 1014.6 -
22/09:00am - - - - - NE 17 19 9 10 1014.7 - -
22/08:30am - - - - - NE 15 17 8 9 1014.8 - -
22/08:24am - - - - - E 13 - 7 - - 1014.6 -
22/08:00am - - - - - E 15 17 8 9 1014.7 - -
22/07:30am - - - - - ENE 17 20 9 11 1014.5 - -
22/07:24am - - - - - ENE 17 - 9 - - 1014.4 -
22/07:00am - - - - - ENE 19 20 10 11 1014.4 - -
22/06:30am - - - - - ENE 19 22 10 12 1013.9 - -
22/06:24am - - - - - ENE 20 - 11 - - 1013.7 -
22/06:00am - - - - - ENE 20 26 11 14 1013.6 - -
22/05:30am - - - - - ENE 19 22 10 12 1013.3 - -
22/05:24am - - - - - ENE 19 - 10 - - 1013.1 -
22/05:00am - - - - - E 17 20 9 11 1013.0 - -
22/04:30am - - - - - ENE 22 26 12 14 1012.8 - -
22/04:24am - - - - - ENE 20 - 11 - - 1012.6 -
22/04:00am - - - - - NE 22 26 12 14 1012.5 - -
22/03:30am - - - - - NE 22 24 12 13 1012.2 - -
22/03:24am - - - - - NE 22 - 12 - - 1012.1 -
22/03:00am - - - - - NE 24 28 13 15 1012.2 - -
22/02:30am - - - - - NE 22 26 12 14 1012.2 - -
22/02:24am - - - - - NE 20 - 11 - - 1012.1 -
22/02:00am - - - - - NE 22 26 12 14 1012.1 - -
22/01:30am - - - - - NE 24 28 13 15 1012.4 - -
22/01:24am - - - - - NE 24 - 13 - - 1012.3 -
22/01:00am - - - - - NE 24 30 13 16 1012.6 - -
22/12:30am - - - - - NE 28 33 15 18 1012.6 - -
22/12:24am - - - - - NE 28 - 15 - - 1012.6 -
22/12:00am - - - - - ENE 26 32 14 17 1013.1 - -
 
Date/Time
EST
Temp
°C
App
Temp
°C
Dew
Point
Rel
Hum
%
Delta-T
°C
Wind Press
QNH
hPa
Press
MSL
hPa
Rain
since 9 am
mm
Dir
 
Spd
km/h
Gust
km/h
Spd
kts
Gust
kts
21/11:30pm - - - - - NE 26 30 14 16 1013.5 - -
21/11:24pm - - - - - NE 28 - 15 - - 1013.5 -
21/11:00pm - - - - - ENE 26 30 14 16 1013.9 - -
21/10:30pm - - - - - ENE 28 32 15 17 1013.9 - -
21/10:24pm - - - - - ENE 26 - 14 - - 1013.8 -

Other Formats:

Comma delimited format used in spreadsheet applications
http://www.bom.gov.au/fwo/IDQ60801/IDQ60801.94290.axf

JavaScript Object Notation format (JSON) in row-major order
http://www.bom.gov.au/fwo/IDQ60801/IDQ60801.94290.json